Gruetli Laager, TN

02:18 AM CDT on Junh 29, 2017 (GMT -0500)
Gruetli | | Change Station

Elev 1909 ft 35.37 °N, 85.66 °W | Updated 13 seconds ago

Clar
Clar
66.4 °F
Feels Like 66.4 °F
N
0.0
vent Variadís vent from Oèst

Auèi
High -- | Low -- °F
--% Chance of Precip.
Yesterday
High -- | Low -- °F
Precip. -- Dins
Pression 30.11 Dins
Visibilitat 10.0 miles
Nivols Clar
Punt de ròs 60 °F
Imor 81%
Rainfall 0.00 Dins
Snow Depth Not available.
5:30 AM 8:01 PM
Waxing Crescent, 33% visible
METAR KBGF 290655Z AUTO 13006KT 10SM CLR 22/17 A3011 RMK
Pression 30.11 Dins
Visibilitat 10.0 miles
Nivols Clar
Punt de ròs 60 °F
Imor 81%
Rainfall 0.00 Dins
Snow Depth Not available.
5:30 AM 8:01 PM
Waxing Crescent, 33% visible
METAR KBGF 290655Z AUTO 13006KT 10SM CLR 22/17 A3011 RMK

Get Severe Weather Alerts

Thanks for signing up!

Be on the lookout for a verification email in your inbox.

You'll start receiving the daily forecast at 6 AM.

×

10-Day Weather Forecast

Almanac

Astronomy

Jun. 29, 2017 Rise Set
Actual Time
Civil Twilight
Nautical Twilight
Astronomical Twilight
Luna
Length Of Visible Light
Length of Day
Tomorrow will be .
, % of the Moon is Illuminated

Today's Extremes

State Highs State Lows

Community

WunderPhotos

Category 6

Welcome to Category 6. This is the collective home for Weather Underground's featured writeups by Dr. Jeff Masters (right), Bob Henson (left), Chris Burt, and other regular contributors.

Nearby

Air Quality

  Air Quality AQ Index Pollutant
Not available.

Snow Depth

Station Depth Elevation

Earthquake Activity

Vila Distance Mag. Time & Date
Minimum magnitude displayed is 2.5.

Coastal Water Temperatures

Luòc Temperatura

Stations

Nearby Weather Stations

Station Location Temp Vent freg Punt de ròs Imor vent Precip. Elev Mes al jorn Type
                   

Watches & Warnings

There are currently no watches in effect.